sensor_id;sensor_type;location;lat;lon;timestamp;temperature;humidity
40676;DHT22;26359;48.750;9.314;2023-05-10T00:00:33;14.10;99.90
40676;DHT22;26359;48.750;9.314;2023-05-10T00:02:58;14.10;99.90
40676;DHT22;26359;48.750;9.314;2023-05-10T00:05:24;14.10;99.90
40676;DHT22;26359;48.750;9.314;2023-05-10T00:07:49;14.10;99.90
40676;DHT22;26359;48.750;9.314;2023-05-10T00:10:15;14.00;99.90
40676;DHT22;26359;48.750;9.314;2023-05-10T00:12:41;14.00;99.90
40676;DHT22;26359;48.750;9.314;2023-05-10T00:15:07;14.00;99.90
40676;DHT22;26359;48.750;9.314;2023-05-10T00:17:33;14.00;99.90
40676;DHT22;26359;48.750;9.314;2023-05-10T00:19:58;14.00;99.90
40676;DHT22;26359;48.750;9.314;2023-05-10T00:22:24;14.00;99.90
40676;DHT22;26359;48.750;9.314;2023-05-10T00:24:49;14.00;99.90
40676;DHT22;26359;48.750;9.314;2023-05-10T00:27:15;14.10;99.90
40676;DHT22;26359;48.750;9.314;2023-05-10T00:29:40;14.00;99.90
40676;DHT22;26359;48.750;9.314;2023-05-10T00:32:06;14.00;99.90
40676;DHT22;26359;48.750;9.314;2023-05-10T00:34:31;13.90;99.90
40676;DHT22;26359;48.750;9.314;2023-05-10T00:36:57;13.80;99.90
40676;DHT22;26359;48.750;9.314;2023-05-10T00:39:23;13.70;99.90
40676;DHT22;26359;48.750;9.314;2023-05-10T00:41:48;13.70;99.90
40676;DHT22;26359;48.750;9.314;2023-05-10T00:44:14;13.70;99.90
40676;DHT22;26359;48.750;9.314;2023-05-10T00:46:40;13.70;99.90
40676;DHT22;26359;48.750;9.314;2023-05-10T00:49:06;13.60;99.90
40676;DHT22;26359;48.750;9.314;2023-05-10T00:51:31;13.60;99.90
40676;DHT22;26359;48.750;9.314;2023-05-10T00:53:57;13.60;99.90
40676;DHT22;26359;48.750;9.314;2023-05-10T00:56:23;13.50;99.90
40676;DHT22;26359;48.750;9.314;2023-05-10T00:58:50;13.50;99.90
40676;DHT22;26359;48.750;9.314;2023-05-10T01:01:16;13.50;99.90
40676;DHT22;26359;48.750;9.314;2023-05-10T01:03:41;13.50;99.90
40676;DHT22;26359;48.750;9.314;2023-05-10T01:06:07;13.50;99.90
40676;DHT22;26359;48.750;9.314;2023-05-10T01:08:35;13.50;99.90
40676;DHT22;26359;48.750;9.314;2023-05-10T01:11:01;13.50;99.90
40676;DHT22;26359;48.750;9.314;2023-05-10T01:13:33;13.50;99.90
40676;DHT22;26359;48.750;9.314;2023-05-10T01:16:00;13.50;99.90
40676;DHT22;26359;48.750;9.314;2023-05-10T01:18:29;13.50;99.90
40676;DHT22;26359;48.750;9.314;2023-05-10T01:21:23;13.40;99.90
40676;DHT22;26359;48.750;9.314;2023-05-10T01:35:32;13.10;99.90
40676;DHT22;26359;48.750;9.314;2023-05-10T01:43:39;13.20;99.90
40676;DHT22;26359;48.750;9.314;2023-05-10T01:46:14;13.20;99.90
40676;DHT22;26359;48.750;9.314;2023-05-10T01:48:51;13.20;99.90
40676;DHT22;26359;48.750;9.314;2023-05-10T01:51:23;13.20;99.90
40676;DHT22;26359;48.750;9.314;2023-05-10T01:53:49;13.10;99.90
40676;DHT22;26359;48.750;9.314;2023-05-10T01:56:19;13.10;99.90
40676;DHT22;26359;48.750;9.314;2023-05-10T01:58:49;13.10;99.90
40676;DHT22;26359;48.750;9.314;2023-05-10T02:01:17;13.10;99.90
40676;DHT22;26359;48.750;9.314;2023-05-10T02:03:44;13.10;99.90
40676;DHT22;26359;48.750;9.314;2023-05-10T02:06:12;13.10;99.90
40676;DHT22;26359;48.750;9.314;2023-05-10T02:08:40;13.20;99.90
40676;DHT22;26359;48.750;9.314;2023-05-10T02:11:06;13.10;99.90
40676;DHT22;26359;48.750;9.314;2023-05-10T02:13:35;13.10;99.90
40676;DHT22;26359;48.750;9.314;2023-05-10T02:16:01;13.10;99.90
40676;DHT22;26359;48.750;9.314;2023-05-10T02:18:29;13.10;99.90
40676;DHT22;26359;48.750;9.314;2023-05-10T02:20:55;13.10;99.90
40676;DHT22;26359;48.750;9.314;2023-05-10T02:23:23;13.10;99.90
40676;DHT22;26359;48.750;9.314;2023-05-10T02:25:49;13.10;99.90
40676;DHT22;26359;48.750;9.314;2023-05-10T02:28:17;13.00;99.90
40676;DHT22;26359;48.750;9.314;2023-05-10T02:30:43;13.00;99.90
40676;DHT22;26359;48.750;9.314;2023-05-10T02:33:09;13.00;99.90
40676;DHT22;26359;48.750;9.314;2023-05-10T02:35:36;13.10;99.90
40676;DHT22;26359;48.750;9.314;2023-05-10T02:38:02;13.10;99.90
40676;DHT22;26359;48.750;9.314;2023-05-10T02:40:29;13.10;99.90
40676;DHT22;26359;48.750;9.314;2023-05-10T02:42:56;13.10;99.90
40676;DHT22;26359;48.750;9.314;2023-05-10T02:45:26;13.10;99.90
40676;DHT22;26359;48.750;9.314;2023-05-10T02:47:53;13.00;99.90
40676;DHT22;26359;48.750;9.314;2023-05-10T02:50:19;13.00;99.90
40676;DHT22;26359;48.750;9.314;2023-05-10T02:52:49;13.00;99.90
40676;DHT22;26359;48.750;9.314;2023-05-10T02:55:20;13.00;99.90
40676;DHT22;26359;48.750;9.314;2023-05-10T02:57:51;13.00;99.90
40676;DHT22;26359;48.750;9.314;2023-05-10T03:00:17;13.00;99.90
40676;DHT22;26359;48.750;9.314;2023-05-10T03:02:42;13.00;99.90
40676;DHT22;26359;48.750;9.314;2023-05-10T03:05:08;13.10;99.90
40676;DHT22;26359;48.750;9.314;2023-05-10T03:07:34;13.10;99.90
40676;DHT22;26359;48.750;9.314;2023-05-10T03:10:00;13.00;99.90
40676;DHT22;26359;48.750;9.314;2023-05-10T03:12:51;13.00;99.90
40676;DHT22;26359;48.750;9.314;2023-05-10T03:15:25;13.10;99.90
40676;DHT22;26359;48.750;9.314;2023-05-10T03:17:57;13.10;99.90
40676;DHT22;26359;48.750;9.314;2023-05-10T03:20:47;13.00;99.90
40676;DHT22;26359;48.750;9.314;2023-05-10T03:23:27;13.00;99.90
40676;DHT22;26359;48.750;9.314;2023-05-10T03:25:55;13.00;99.90
40676;DHT22;26359;48.750;9.314;2023-05-10T03:28:22;13.10;99.90
40676;DHT22;26359;48.750;9.314;2023-05-10T03:30:49;13.10;99.90
40676;DHT22;26359;48.750;9.314;2023-05-10T03:33:15;13.10;99.90
40676;DHT22;26359;48.750;9.314;2023-05-10T03:35:41;13.20;99.90
40676;DHT22;26359;48.750;9.314;2023-05-10T03:38:07;13.20;99.90
40676;DHT22;26359;48.750;9.314;2023-05-10T03:40:32;13.10;99.90
40676;DHT22;26359;48.750;9.314;2023-05-10T03:42:59;13.20;99.90
40676;DHT22;26359;48.750;9.314;2023-05-10T03:45:24;13.20;99.90
40676;DHT22;26359;48.750;9.314;2023-05-10T03:47:50;13.20;99.90
40676;DHT22;26359;48.750;9.314;2023-05-10T03:50:15;13.10;99.90
40676;DHT22;26359;48.750;9.314;2023-05-10T03:52:41;13.10;99.90
40676;DHT22;26359;48.750;9.314;2023-05-10T03:55:07;13.10;99.90
40676;DHT22;26359;48.750;9.314;2023-05-10T03:57:33;13.10;99.90
40676;DHT22;26359;48.750;9.314;2023-05-10T03:59:59;13.00;99.90
40676;DHT22;26359;48.750;9.314;2023-05-10T04:02:25;13.00;99.90
40676;DHT22;26359;48.750;9.314;2023-05-10T04:04:50;13.00;99.90
40676;DHT22;26359;48.750;9.314;2023-05-10T04:07:16;13.10;99.90
40676;DHT22;26359;48.750;9.314;2023-05-10T04:09:42;13.00;99.90
40676;DHT22;26359;48.750;9.314;2023-05-10T04:12:07;12.90;99.90
40676;DHT22;26359;48.750;9.314;2023-05-10T04:14:33;13.00;99.90
40676;DHT22;26359;48.750;9.314;2023-05-10T04:16:59;12.90;99.90
40676;DHT22;26359;48.750;9.314;2023-05-10T04:19:28;12.90;99.90
40676;DHT22;26359;48.750;9.314;2023-05-10T04:21:54;13.00;99.90
40676;DHT22;26359;48.750;9.314;2023-05-10T04:24:19;13.00;99.90
40676;DHT22;26359;48.750;9.314;2023-05-10T04:26:45;13.00;99.90
40676;DHT22;26359;48.750;9.314;2023-05-10T04:29:10;13.00;99.90
40676;DHT22;26359;48.750;9.314;2023-05-10T04:31:36;13.00;99.90
40676;DHT22;26359;48.750;9.314;2023-05-10T04:34:02;13.00;99.90
40676;DHT22;26359;48.750;9.314;2023-05-10T04:36:27;13.00;99.90
40676;DHT22;26359;48.750;9.314;2023-05-10T04:38:53;13.00;99.90
40676;DHT22;26359;48.750;9.314;2023-05-10T04:41:18;12.90;99.90
40676;DHT22;26359;48.750;9.314;2023-05-10T04:43:44;12.90;99.90
40676;DHT22;26359;48.750;9.314;2023-05-10T04:46:09;13.00;99.90
40676;DHT22;26359;48.750;9.314;2023-05-10T04:48:35;12.90;99.90
40676;DHT22;26359;48.750;9.314;2023-05-10T04:51:00;12.90;99.90
40676;DHT22;26359;48.750;9.314;2023-05-10T04:53:26;12.90;99.90
40676;DHT22;26359;48.750;9.314;2023-05-10T04:55:52;13.00;99.90
40676;DHT22;26359;48.750;9.314;2023-05-10T04:58:17;12.90;99.90
40676;DHT22;26359;48.750;9.314;2023-05-10T05:00:43;13.00;99.90
40676;DHT22;26359;48.750;9.314;2023-05-10T05:03:09;13.00;99.90
40676;DHT22;26359;48.750;9.314;2023-05-10T05:05:34;13.00;99.90
40676;DHT22;26359;48.750;9.314;2023-05-10T05:08:00;13.00;99.90
40676;DHT22;26359;48.750;9.314;2023-05-10T05:10:26;13.00;99.90
40676;DHT22;26359;48.750;9.314;2023-05-10T05:12:51;13.00;99.90
40676;DHT22;26359;48.750;9.314;2023-05-10T05:15:17;12.90;99.90
40676;DHT22;26359;48.750;9.314;2023-05-10T05:17:43;13.00;99.90
40676;DHT22;26359;48.750;9.314;2023-05-10T05:20:09;13.00;99.90
40676;DHT22;26359;48.750;9.314;2023-05-10T05:22:36;13.00;99.90
40676;DHT22;26359;48.750;9.314;2023-05-10T05:25:02;13.00;99.90
40676;DHT22;26359;48.750;9.314;2023-05-10T05:27:28;13.10;99.90
40676;DHT22;26359;48.750;9.314;2023-05-10T05:29:55;13.10;99.90
40676;DHT22;26359;48.750;9.314;2023-05-10T05:32:20;13.10;99.90
40676;DHT22;26359;48.750;9.314;2023-05-10T05:34:46;13.10;99.90
40676;DHT22;26359;48.750;9.314;2023-05-10T05:37:13;13.20;99.90
40676;DHT22;26359;48.750;9.314;2023-05-10T05:39:39;13.20;99.90
40676;DHT22;26359;48.750;9.314;2023-05-10T05:42:05;13.10;99.90
40676;DHT22;26359;48.750;9.314;2023-05-10T05:44:30;13.20;99.90
40676;DHT22;26359;48.750;9.314;2023-05-10T05:46:56;13.20;99.90
40676;DHT22;26359;48.750;9.314;2023-05-10T05:49:21;13.20;99.90
40676;DHT22;26359;48.750;9.314;2023-05-10T05:51:47;13.20;99.90
40676;DHT22;26359;48.750;9.314;2023-05-10T05:54:14;13.30;99.90
40676;DHT22;26359;48.750;9.314;2023-05-10T05:56:40;13.30;99.90
40676;DHT22;26359;48.750;9.314;2023-05-10T05:59:06;13.30;99.90
40676;DHT22;26359;48.750;9.314;2023-05-10T06:01:31;13.30;99.90
40676;DHT22;26359;48.750;9.314;2023-05-10T06:03:57;13.30;99.90
40676;DHT22;26359;48.750;9.314;2023-05-10T06:06:22;13.30;99.90
40676;DHT22;26359;48.750;9.314;2023-05-10T06:08:48;13.30;99.90
40676;DHT22;26359;48.750;9.314;2023-05-10T06:11:13;13.40;99.90
40676;DHT22;26359;48.750;9.314;2023-05-10T06:13:39;13.40;99.90
40676;DHT22;26359;48.750;9.314;2023-05-10T06:16:04;13.40;99.90
40676;DHT22;26359;48.750;9.314;2023-05-10T06:18:30;13.60;99.90
40676;DHT22;26359;48.750;9.314;2023-05-10T06:20:56;13.60;99.90
40676;DHT22;26359;48.750;9.314;2023-05-10T06:23:21;13.60;99.90
40676;DHT22;26359;48.750;9.314;2023-05-10T06:25:47;13.60;99.90
40676;DHT22;26359;48.750;9.314;2023-05-10T06:28:13;13.60;99.90
40676;DHT22;26359;48.750;9.314;2023-05-10T06:30:38;13.60;99.90
40676;DHT22;26359;48.750;9.314;2023-05-10T06:33:04;13.60;99.90
40676;DHT22;26359;48.750;9.314;2023-05-10T06:35:30;13.50;99.90
40676;DHT22;26359;48.750;9.314;2023-05-10T06:37:56;13.50;99.90
40676;DHT22;26359;48.750;9.314;2023-05-10T06:40:22;13.60;99.90
40676;DHT22;26359;48.750;9.314;2023-05-10T06:42:48;13.60;99.90
40676;DHT22;26359;48.750;9.314;2023-05-10T06:45:14;13.60;99.90
40676;DHT22;26359;48.750;9.314;2023-05-10T06:47:40;13.60;99.90
40676;DHT22;26359;48.750;9.314;2023-05-10T06:50:10;13.50;99.90
40676;DHT22;26359;48.750;9.314;2023-05-10T06:52:36;13.60;99.90
40676;DHT22;26359;48.750;9.314;2023-05-10T06:55:03;13.70;99.90
40676;DHT22;26359;48.750;9.314;2023-05-10T06:57:29;13.70;99.90
40676;DHT22;26359;48.750;9.314;2023-05-10T06:59:54;13.70;99.90
40676;DHT22;26359;48.750;9.314;2023-05-10T07:02:21;13.70;99.90
40676;DHT22;26359;48.750;9.314;2023-05-10T07:04:48;13.70;99.90
40676;DHT22;26359;48.750;9.314;2023-05-10T07:07:14;13.60;99.90
40676;DHT22;26359;48.750;9.314;2023-05-10T07:09:40;13.70;99.90
40676;DHT22;26359;48.750;9.314;2023-05-10T07:12:05;13.70;99.90
40676;DHT22;26359;48.750;9.314;2023-05-10T07:14:31;13.70;99.90
40676;DHT22;26359;48.750;9.314;2023-05-10T07:16:56;13.70;99.90
40676;DHT22;26359;48.750;9.314;2023-05-10T07:19:22;13.70;99.90
40676;DHT22;26359;48.750;9.314;2023-05-10T07:21:47;13.70;99.90
40676;DHT22;26359;48.750;9.314;2023-05-10T07:24:13;13.80;99.90
40676;DHT22;26359;48.750;9.314;2023-05-10T07:26:38;13.70;99.90
40676;DHT22;26359;48.750;9.314;2023-05-10T07:29:04;13.80;99.90
40676;DHT22;26359;48.750;9.314;2023-05-10T07:31:29;13.90;99.90
40676;DHT22;26359;48.750;9.314;2023-05-10T07:33:55;14.00;99.90
40676;DHT22;26359;48.750;9.314;2023-05-10T07:36:20;14.00;99.90
40676;DHT22;26359;48.750;9.314;2023-05-10T07:38:46;14.10;99.90
40676;DHT22;26359;48.750;9.314;2023-05-10T07:41:12;14.10;99.90
40676;DHT22;26359;48.750;9.314;2023-05-10T07:43:37;14.10;99.90
40676;DHT22;26359;48.750;9.314;2023-05-10T07:46:03;14.20;99.90
40676;DHT22;26359;48.750;9.314;2023-05-10T07:48:28;14.30;99.90
40676;DHT22;26359;48.750;9.314;2023-05-10T07:50:54;14.40;99.90
40676;DHT22;26359;48.750;9.314;2023-05-10T07:53:19;14.40;99.90
40676;DHT22;26359;48.750;9.314;2023-05-10T07:55:50;14.40;99.90
40676;DHT22;26359;48.750;9.314;2023-05-10T07:58:16;14.50;99.90
40676;DHT22;26359;48.750;9.314;2023-05-10T08:00:41;14.50;99.90
40676;DHT22;26359;48.750;9.314;2023-05-10T08:03:07;14.50;99.90
40676;DHT22;26359;48.750;9.314;2023-05-10T08:05:32;14.60;99.90
40676;DHT22;26359;48.750;9.314;2023-05-10T08:07:58;14.40;99.90
40676;DHT22;26359;48.750;9.314;2023-05-10T08:10:25;14.40;99.90
40676;DHT22;26359;48.750;9.314;2023-05-10T08:12:50;14.40;99.90
40676;DHT22;26359;48.750;9.314;2023-05-10T08:15:16;14.40;99.90
40676;DHT22;26359;48.750;9.314;2023-05-10T08:17:42;14.50;99.90
40676;DHT22;26359;48.750;9.314;2023-05-10T08:20:08;14.50;99.90
40676;DHT22;26359;48.750;9.314;2023-05-10T08:22:34;14.60;99.90
40676;DHT22;26359;48.750;9.314;2023-05-10T08:25:00;14.60;99.90
40676;DHT22;26359;48.750;9.314;2023-05-10T08:27:25;14.60;99.90
40676;DHT22;26359;48.750;9.314;2023-05-10T08:29:51;14.70;99.90
40676;DHT22;26359;48.750;9.314;2023-05-10T08:32:17;14.70;99.90
40676;DHT22;26359;48.750;9.314;2023-05-10T08:34:42;14.70;99.90
40676;DHT22;26359;48.750;9.314;2023-05-10T08:37:08;14.70;99.90
40676;DHT22;26359;48.750;9.314;2023-05-10T08:39:36;14.70;99.90
40676;DHT22;26359;48.750;9.314;2023-05-10T08:42:04;14.80;99.90
40676;DHT22;26359;48.750;9.314;2023-05-10T08:44:34;14.90;99.90
40676;DHT22;26359;48.750;9.314;2023-05-10T08:47:05;14.90;99.90
40676;DHT22;26359;48.750;9.314;2023-05-10T08:49:32;14.90;99.90
40676;DHT22;26359;48.750;9.314;2023-05-10T08:52:01;14.90;99.90
40676;DHT22;26359;48.750;9.314;2023-05-10T08:54:28;14.90;99.90
40676;DHT22;26359;48.750;9.314;2023-05-10T08:56:54;15.00;99.90
40676;DHT22;26359;48.750;9.314;2023-05-10T08:59:19;15.10;99.90
40676;DHT22;26359;48.750;9.314;2023-05-10T09:01:45;15.20;99.90
40676;DHT22;26359;48.750;9.314;2023-05-10T09:04:11;15.20;99.90
40676;DHT22;26359;48.750;9.314;2023-05-10T09:06:37;15.20;99.90
40676;DHT22;26359;48.750;9.314;2023-05-10T09:09:03;15.10;99.90
40676;DHT22;26359;48.750;9.314;2023-05-10T09:11:29;15.20;99.90
40676;DHT22;26359;48.750;9.314;2023-05-10T09:13:55;15.30;99.90
40676;DHT22;26359;48.750;9.314;2023-05-10T09:16:22;15.50;99.90
40676;DHT22;26359;48.750;9.314;2023-05-10T09:18:48;15.60;99.90
40676;DHT22;26359;48.750;9.314;2023-05-10T09:21:14;15.70;99.90
40676;DHT22;26359;48.750;9.314;2023-05-10T09:23:43;15.70;99.90
40676;DHT22;26359;48.750;9.314;2023-05-10T09:26:08;15.70;99.90
40676;DHT22;26359;48.750;9.314;2023-05-10T09:28:50;15.60;99.90
40676;DHT22;26359;48.750;9.314;2023-05-10T09:31:16;15.60;99.90
40676;DHT22;26359;48.750;9.314;2023-05-10T09:33:46;15.60;99.90
40676;DHT22;26359;48.750;9.314;2023-05-10T09:36:12;15.70;99.90
40676;DHT22;26359;48.750;9.314;2023-05-10T09:38:48;15.50;99.90
40676;DHT22;26359;48.750;9.314;2023-05-10T09:41:33;15.50;99.90
40676;DHT22;26359;48.750;9.314;2023-05-10T09:43:58;15.40;99.90
40676;DHT22;26359;48.750;9.314;2023-05-10T09:46:24;15.40;99.90
40676;DHT22;26359;48.750;9.314;2023-05-10T09:48:49;15.20;99.90
40676;DHT22;26359;48.750;9.314;2023-05-10T09:51:22;15.10;99.90
40676;DHT22;26359;48.750;9.314;2023-05-10T09:53:48;14.90;99.90
40676;DHT22;26359;48.750;9.314;2023-05-10T09:56:33;14.90;99.90
40676;DHT22;26359;48.750;9.314;2023-05-10T09:59:03;14.90;99.90
40676;DHT22;26359;48.750;9.314;2023-05-10T10:01:29;14.90;99.90
40676;DHT22;26359;48.750;9.314;2023-05-10T10:03:54;15.00;99.90
40676;DHT22;26359;48.750;9.314;2023-05-10T10:06:23;15.00;99.90
40676;DHT22;26359;48.750;9.314;2023-05-10T10:08:48;15.10;99.90
40676;DHT22;26359;48.750;9.314;2023-05-10T10:11:14;15.20;99.90
40676;DHT22;26359;48.750;9.314;2023-05-10T10:13:40;15.30;99.90
40676;DHT22;26359;48.750;9.314;2023-05-10T10:16:06;15.50;99.90
40676;DHT22;26359;48.750;9.314;2023-05-10T10:18:33;15.60;99.90
40676;DHT22;26359;48.750;9.314;2023-05-10T10:21:07;15.80;99.90
40676;DHT22;26359;48.750;9.314;2023-05-10T10:23:34;15.90;99.90
40676;DHT22;26359;48.750;9.314;2023-05-10T10:26:02;16.00;99.90
40676;DHT22;26359;48.750;9.314;2023-05-10T10:29:04;16.10;99.90
40676;DHT22;26359;48.750;9.314;2023-05-10T10:31:32;16.20;99.90
40676;DHT22;26359;48.750;9.314;2023-05-10T10:36:27;16.50;99.90
40676;DHT22;26359;48.750;9.314;2023-05-10T10:39:00;16.50;99.90
40676;DHT22;26359;48.750;9.314;2023-05-10T10:41:29;16.30;99.90
40676;DHT22;26359;48.750;9.314;2023-05-10T10:52:31;16.10;99.90
40676;DHT22;26359;48.750;9.314;2023-05-10T10:57:34;16.10;99.90
40676;DHT22;26359;48.750;9.314;2023-05-10T11:03:08;16.00;99.90
40676;DHT22;26359;48.750;9.314;2023-05-10T11:05:42;15.90;99.90
40676;DHT22;26359;48.750;9.314;2023-05-10T11:10:38;15.90;99.90
40676;DHT22;26359;48.750;9.314;2023-05-10T11:13:04;15.90;99.90
40676;DHT22;26359;48.750;9.314;2023-05-10T11:17:56;15.70;99.90
40676;DHT22;26359;48.750;9.314;2023-05-10T11:20:22;15.40;99.90
40676;DHT22;26359;48.750;9.314;2023-05-10T11:22:53;14.90;99.90
40676;DHT22;26359;48.750;9.314;2023-05-10T11:25:19;14.50;99.90
40676;DHT22;26359;48.750;9.314;2023-05-10T11:27:47;14.40;99.90
40676;DHT22;26359;48.750;9.314;2023-05-10T11:30:14;14.40;99.90
40676;DHT22;26359;48.750;9.314;2023-05-10T11:32:40;14.30;99.90
40676;DHT22;26359;48.750;9.314;2023-05-10T11:35:10;14.20;99.90
40676;DHT22;26359;48.750;9.314;2023-05-10T11:37:37;14.20;99.90
40676;DHT22;26359;48.750;9.314;2023-05-10T11:40:09;14.20;99.90
40676;DHT22;26359;48.750;9.314;2023-05-10T11:42:38;14.20;99.90
40676;DHT22;26359;48.750;9.314;2023-05-10T11:45:04;14.30;99.90
40676;DHT22;26359;48.750;9.314;2023-05-10T11:47:30;14.40;99.90
40676;DHT22;26359;48.750;9.314;2023-05-10T11:49:57;14.50;99.90
40676;DHT22;26359;48.750;9.314;2023-05-10T11:52:23;14.60;99.90
40676;DHT22;26359;48.750;9.314;2023-05-10T11:54:53;14.60;99.90
40676;DHT22;26359;48.750;9.314;2023-05-10T11:57:25;14.70;99.90
40676;DHT22;26359;48.750;9.314;2023-05-10T11:59:53;14.60;99.90
40676;DHT22;26359;48.750;9.314;2023-05-10T12:02:20;14.60;99.90
40676;DHT22;26359;48.750;9.314;2023-05-10T12:04:46;14.60;99.90
40676;DHT22;26359;48.750;9.314;2023-05-10T12:07:11;14.60;99.90
40676;DHT22;26359;48.750;9.314;2023-05-10T12:09:41;14.60;99.90
40676;DHT22;26359;48.750;9.314;2023-05-10T12:12:07;14.60;99.90
40676;DHT22;26359;48.750;9.314;2023-05-10T12:14:35;14.60;99.90
40676;DHT22;26359;48.750;9.314;2023-05-10T12:19:26;14.60;99.90
40676;DHT22;26359;48.750;9.314;2023-05-10T12:21:51;14.50;99.90
40676;DHT22;26359;48.750;9.314;2023-05-10T12:24:17;14.50;99.90
40676;DHT22;26359;48.750;9.314;2023-05-10T12:26:45;14.50;99.90
40676;DHT22;26359;48.750;9.314;2023-05-10T12:29:17;14.40;99.90
40676;DHT22;26359;48.750;9.314;2023-05-10T12:31:59;14.50;99.90
40676;DHT22;26359;48.750;9.314;2023-05-10T12:34:33;14.40;99.90
40676;DHT22;26359;48.750;9.314;2023-05-10T12:36:59;14.50;99.90
40676;DHT22;26359;48.750;9.314;2023-05-10T12:39:25;14.50;99.90
40676;DHT22;26359;48.750;9.314;2023-05-10T12:41:51;14.60;99.90
40676;DHT22;26359;48.750;9.314;2023-05-10T12:44:17;14.60;99.90
40676;DHT22;26359;48.750;9.314;2023-05-10T12:46:43;14.70;99.90
40676;DHT22;26359;48.750;9.314;2023-05-10T12:49:09;14.90;99.90
40676;DHT22;26359;48.750;9.314;2023-05-10T12:51:34;15.00;99.90
40676;DHT22;26359;48.750;9.314;2023-05-10T12:54:00;15.20;99.90
40676;DHT22;26359;48.750;9.314;2023-05-10T12:56:26;15.20;99.90
40676;DHT22;26359;48.750;9.314;2023-05-10T12:58:51;15.40;99.90
40676;DHT22;26359;48.750;9.314;2023-05-10T13:01:17;15.40;99.90
40676;DHT22;26359;48.750;9.314;2023-05-10T13:03:42;15.40;99.90
40676;DHT22;26359;48.750;9.314;2023-05-10T13:06:10;15.40;99.90
40676;DHT22;26359;48.750;9.314;2023-05-10T13:08:36;15.10;99.90
40676;DHT22;26359;48.750;9.314;2023-05-10T13:11:02;15.00;99.90
40676;DHT22;26359;48.750;9.314;2023-05-10T13:13:28;15.00;99.90
40676;DHT22;26359;48.750;9.314;2023-05-10T13:15:53;14.90;99.90
40676;DHT22;26359;48.750;9.314;2023-05-10T13:18:19;14.70;99.90
40676;DHT22;26359;48.750;9.314;2023-05-10T13:20:45;14.60;99.90
40676;DHT22;26359;48.750;9.314;2023-05-10T13:23:10;14.50;99.90
40676;DHT22;26359;48.750;9.314;2023-05-10T13:25:36;14.40;99.90
40676;DHT22;26359;48.750;9.314;2023-05-10T13:28:02;14.20;99.90
40676;DHT22;26359;48.750;9.314;2023-05-10T13:30:27;14.20;99.90
40676;DHT22;26359;48.750;9.314;2023-05-10T13:32:54;14.20;99.90
40676;DHT22;26359;48.750;9.314;2023-05-10T13:35:19;14.20;99.90
40676;DHT22;26359;48.750;9.314;2023-05-10T13:37:45;14.30;99.90
40676;DHT22;26359;48.750;9.314;2023-05-10T13:40:10;14.40;99.90
40676;DHT22;26359;48.750;9.314;2023-05-10T13:42:36;14.50;99.90
40676;DHT22;26359;48.750;9.314;2023-05-10T13:45:03;14.60;99.90
40676;DHT22;26359;48.750;9.314;2023-05-10T13:47:28;14.90;99.90
40676;DHT22;26359;48.750;9.314;2023-05-10T13:49:54;15.00;99.90
40676;DHT22;26359;48.750;9.314;2023-05-10T13:52:19;15.20;99.90
40676;DHT22;26359;48.750;9.314;2023-05-10T13:54:45;15.20;99.90
40676;DHT22;26359;48.750;9.314;2023-05-10T13:57:11;15.30;99.90
40676;DHT22;26359;48.750;9.314;2023-05-10T13:59:39;15.30;99.90
40676;DHT22;26359;48.750;9.314;2023-05-10T14:02:04;15.40;99.90
40676;DHT22;26359;48.750;9.314;2023-05-10T14:04:30;15.40;99.90
40676;DHT22;26359;48.750;9.314;2023-05-10T14:06:56;15.40;99.90
40676;DHT22;26359;48.750;9.314;2023-05-10T14:09:21;15.50;99.90
40676;DHT22;26359;48.750;9.314;2023-05-10T14:11:47;15.50;99.90
40676;DHT22;26359;48.750;9.314;2023-05-10T14:14:13;15.40;99.90
40676;DHT22;26359;48.750;9.314;2023-05-10T14:16:43;15.50;99.90
40676;DHT22;26359;48.750;9.314;2023-05-10T14:19:09;15.60;99.90
40676;DHT22;26359;48.750;9.314;2023-05-10T14:21:35;15.60;99.90
40676;DHT22;26359;48.750;9.314;2023-05-10T14:24:01;15.60;99.90
40676;DHT22;26359;48.750;9.314;2023-05-10T14:26:26;15.60;99.90
40676;DHT22;26359;48.750;9.314;2023-05-10T14:28:52;15.70;99.90
40676;DHT22;26359;48.750;9.314;2023-05-10T14:31:18;15.90;99.90
40676;DHT22;26359;48.750;9.314;2023-05-10T14:33:48;16.10;99.90
40676;DHT22;26359;48.750;9.314;2023-05-10T14:36:14;16.00;99.90
40676;DHT22;26359;48.750;9.314;2023-05-10T14:38:40;16.00;99.90
40676;DHT22;26359;48.750;9.314;2023-05-10T14:41:05;16.00;99.90
40676;DHT22;26359;48.750;9.314;2023-05-10T14:43:31;16.00;99.90
40676;DHT22;26359;48.750;9.314;2023-05-10T14:45:56;16.10;99.90
40676;DHT22;26359;48.750;9.314;2023-05-10T14:48:22;16.10;99.90
40676;DHT22;26359;48.750;9.314;2023-05-10T14:50:48;16.30;99.90
40676;DHT22;26359;48.750;9.314;2023-05-10T14:53:15;16.10;99.90
40676;DHT22;26359;48.750;9.314;2023-05-10T14:55:40;16.10;99.90
40676;DHT22;26359;48.750;9.314;2023-05-10T14:58:06;16.20;99.90
40676;DHT22;26359;48.750;9.314;2023-05-10T15:00:31;16.20;99.90
40676;DHT22;26359;48.750;9.314;2023-05-10T15:02:57;16.20;99.90
40676;DHT22;26359;48.750;9.314;2023-05-10T15:05:23;16.20;99.90
40676;DHT22;26359;48.750;9.314;2023-05-10T15:07:48;16.10;99.90
40676;DHT22;26359;48.750;9.314;2023-05-10T15:10:14;16.00;99.90
40676;DHT22;26359;48.750;9.314;2023-05-10T15:12:40;16.00;99.90
40676;DHT22;26359;48.750;9.314;2023-05-10T15:15:06;15.90;99.90
40676;DHT22;26359;48.750;9.314;2023-05-10T15:17:33;15.90;99.90
40676;DHT22;26359;48.750;9.314;2023-05-10T15:19:58;15.90;99.90
40676;DHT22;26359;48.750;9.314;2023-05-10T15:22:24;15.80;99.90
40676;DHT22;26359;48.750;9.314;2023-05-10T15:24:49;15.70;99.90
40676;DHT22;26359;48.750;9.314;2023-05-10T15:27:15;15.70;99.90
40676;DHT22;26359;48.750;9.314;2023-05-10T15:29:40;15.90;99.90
40676;DHT22;26359;48.750;9.314;2023-05-10T15:32:06;16.00;99.90
40676;DHT22;26359;48.750;9.314;2023-05-10T15:34:32;15.90;99.90
40676;DHT22;26359;48.750;9.314;2023-05-10T15:36:57;16.00;99.90
40676;DHT22;26359;48.750;9.314;2023-05-10T15:39:23;16.10;99.90
40676;DHT22;26359;48.750;9.314;2023-05-10T15:41:48;16.10;99.90
40676;DHT22;26359;48.750;9.314;2023-05-10T15:44:14;16.20;99.90
40676;DHT22;26359;48.750;9.314;2023-05-10T15:46:39;16.10;99.90
40676;DHT22;26359;48.750;9.314;2023-05-10T15:49:05;16.10;99.90
40676;DHT22;26359;48.750;9.314;2023-05-10T15:51:31;16.30;99.90
40676;DHT22;26359;48.750;9.314;2023-05-10T15:53:58;16.30;99.90
40676;DHT22;26359;48.750;9.314;2023-05-10T15:56:23;16.30;99.90
40676;DHT22;26359;48.750;9.314;2023-05-10T15:58:49;16.30;99.90
40676;DHT22;26359;48.750;9.314;2023-05-10T16:01:15;16.20;99.90
40676;DHT22;26359;48.750;9.314;2023-05-10T16:03:40;16.20;99.90
40676;DHT22;26359;48.750;9.314;2023-05-10T16:06:07;16.10;99.90
40676;DHT22;26359;48.750;9.314;2023-05-10T16:08:32;16.10;99.90